sensor_id;sensor_type;location;lat;lon;timestamp;pressure;altitude;pressure_sealevel;temperature;humidity
56681;BME280;42558;52.388;13.390;2022-11-20T00:01:54;100742.35;;;-1.69;100.00
56681;BME280;42558;52.388;13.390;2022-11-20T00:04:22;100739.27;;;-1.74;100.00
56681;BME280;42558;52.388;13.390;2022-11-20T00:06:51;100738.73;;;-1.77;100.00
56681;BME280;42558;52.388;13.390;2022-11-20T00:09:19;100738.49;;;-1.75;100.00
56681;BME280;42558;52.388;13.390;2022-11-20T00:11:48;100739.86;;;-1.73;100.00
56681;BME280;42558;52.388;13.390;2022-11-20T00:14:16;100739.68;;;-1.73;100.00
56681;BME280;42558;52.388;13.390;2022-11-20T00:16:44;100734.68;;;-1.73;100.00
56681;BME280;42558;52.388;13.390;2022-11-20T00:19:13;100729.59;;;-1.77;100.00
56681;BME280;42558;52.388;13.390;2022-11-20T00:21:41;100735.67;;;-1.82;100.00
56681;BME280;42558;52.388;13.390;2022-11-20T00:24:10;100731.15;;;-1.83;100.00
56681;BME280;42558;52.388;13.390;2022-11-20T00:26:38;100733.14;;;-1.87;100.00
56681;BME280;42558;52.388;13.390;2022-11-20T00:29:09;100735.41;;;-1.89;100.00
56681;BME280;42558;52.388;13.390;2022-11-20T00:31:39;100736.44;;;-1.86;100.00
56681;BME280;42558;52.388;13.390;2022-11-20T00:34:09;100732.39;;;-1.87;100.00
56681;BME280;42558;52.388;13.390;2022-11-20T00:36:39;100733.65;;;-1.89;100.00
56681;BME280;42558;52.388;13.390;2022-11-20T00:39:09;100733.21;;;-1.88;100.00
56681;BME280;42558;52.388;13.390;2022-11-20T00:41:39;100739.19;;;-1.89;100.00
56681;BME280;42558;52.388;13.390;2022-11-20T00:44:09;100743.23;;;-1.96;100.00
56681;BME280;42558;52.388;13.390;2022-11-20T00:46:39;100743.63;;;-1.96;100.00
56681;BME280;42558;52.388;13.390;2022-11-20T00:49:09;100744.41;;;-1.91;100.00
56681;BME280;42558;52.388;13.390;2022-11-20T00:51:39;100745.08;;;-1.91;100.00
56681;BME280;42558;52.388;13.390;2022-11-20T00:54:08;100747.70;;;-1.97;100.00
56681;BME280;42558;52.388;13.390;2022-11-20T00:56:38;100746.48;;;-1.97;100.00
56681;BME280;42558;52.388;13.390;2022-11-20T00:59:09;100744.44;;;-1.94;100.00
56681;BME280;42558;52.388;13.390;2022-11-20T01:01:39;100748.65;;;-1.95;100.00
56681;BME280;42558;52.388;13.390;2022-11-20T01:04:09;100746.48;;;-1.94;100.00
56681;BME280;42558;52.388;13.390;2022-11-20T01:06:39;100746.46;;;-1.92;100.00
56681;BME280;42558;52.388;13.390;2022-11-20T01:09:13;100748.00;;;-1.92;100.00
56681;BME280;42558;52.388;13.390;2022-11-20T01:11:43;100749.51;;;-1.98;100.00
56681;BME280;42558;52.388;13.390;2022-11-20T01:14:16;100743.90;;;-2.05;100.00
56681;BME280;42558;52.388;13.390;2022-11-20T01:16:50;100744.86;;;-2.06;100.00
56681;BME280;42558;52.388;13.390;2022-11-20T01:19:22;100742.98;;;-2.11;100.00
56681;BME280;42558;52.388;13.390;2022-11-20T01:21:53;100739.52;;;-2.11;100.00
56681;BME280;42558;52.388;13.390;2022-11-20T01:24:23;100736.27;;;-2.16;100.00
56681;BME280;42558;52.388;13.390;2022-11-20T01:26:51;100732.83;;;-2.22;100.00
56681;BME280;42558;52.388;13.390;2022-11-20T01:29:23;100735.94;;;-2.27;100.00
56681;BME280;42558;52.388;13.390;2022-11-20T01:31:53;100736.27;;;-2.27;100.00
56681;BME280;42558;52.388;13.390;2022-11-20T01:34:23;100730.83;;;-2.26;100.00
56681;BME280;42558;52.388;13.390;2022-11-20T01:36:54;100730.61;;;-2.24;100.00
56681;BME280;42558;52.388;13.390;2022-11-20T01:39:26;100733.84;;;-2.33;100.00
56681;BME280;42558;52.388;13.390;2022-11-20T01:41:56;100732.05;;;-2.34;100.00
56681;BME280;42558;52.388;13.390;2022-11-20T01:44:58;100733.59;;;-2.36;100.00
56681;BME280;42558;52.388;13.390;2022-11-20T01:47:42;100732.46;;;-2.35;100.00
56681;BME280;42558;52.388;13.390;2022-11-20T01:50:27;100734.17;;;-2.33;100.00
56681;BME280;42558;52.388;13.390;2022-11-20T01:53:08;100730.48;;;-2.37;100.00
56681;BME280;42558;52.388;13.390;2022-11-20T01:55:44;100727.88;;;-2.48;100.00
56681;BME280;42558;52.388;13.390;2022-11-20T01:58:20;100728.89;;;-2.45;100.00
56681;BME280;42558;52.388;13.390;2022-11-20T02:00:49;100732.03;;;-2.39;100.00
56681;BME280;42558;52.388;13.390;2022-11-20T02:03:23;100726.17;;;-2.39;100.00
56681;BME280;42558;52.388;13.390;2022-11-20T02:06:19;100723.55;;;-2.34;100.00
56681;BME280;42558;52.388;13.390;2022-11-20T02:08:53;100724.08;;;-2.37;100.00
56681;BME280;42558;52.388;13.390;2022-11-20T02:11:23;100723.52;;;-2.38;100.00
56681;BME280;42558;52.388;13.390;2022-11-20T02:13:52;100720.05;;;-2.38;100.00
56681;BME280;42558;52.388;13.390;2022-11-20T02:16:27;100717.77;;;-2.41;100.00
56681;BME280;42558;52.388;13.390;2022-11-20T02:19:02;100717.14;;;-2.38;100.00
56681;BME280;42558;52.388;13.390;2022-11-20T02:21:59;100714.55;;;-2.35;100.00
56681;BME280;42558;52.388;13.390;2022-11-20T02:24:29;100711.33;;;-2.40;100.00
56681;BME280;42558;52.388;13.390;2022-11-20T02:27:06;100708.95;;;-2.48;100.00
56681;BME280;42558;52.388;13.390;2022-11-20T02:29:52;100708.52;;;-2.49;100.00
56681;BME280;42558;52.388;13.390;2022-11-20T02:32:33;100707.42;;;-2.50;100.00
56681;BME280;42558;52.388;13.390;2022-11-20T02:35:09;100704.51;;;-2.53;100.00
56681;BME280;42558;52.388;13.390;2022-11-20T02:38:02;100705.04;;;-2.55;100.00
56681;BME280;42558;52.388;13.390;2022-11-20T02:40:32;100708.65;;;-2.53;100.00
56681;BME280;42558;52.388;13.390;2022-11-20T02:43:02;100708.69;;;-2.54;100.00
56681;BME280;42558;52.388;13.390;2022-11-20T02:45:32;100703.50;;;-2.58;100.00
56681;BME280;42558;52.388;13.390;2022-11-20T02:48:02;100700.97;;;-2.60;100.00
56681;BME280;42558;52.388;13.390;2022-11-20T02:50:32;100700.15;;;-2.64;100.00
56681;BME280;42558;52.388;13.390;2022-11-20T02:52:59;100695.73;;;-2.68;100.00
56681;BME280;42558;52.388;13.390;2022-11-20T02:55:26;100694.67;;;-2.69;100.00
56681;BME280;42558;52.388;13.390;2022-11-20T02:57:56;100693.13;;;-2.69;100.00
56681;BME280;42558;52.388;13.390;2022-11-20T03:00:24;100691.39;;;-2.75;100.00
56681;BME280;42558;52.388;13.390;2022-11-20T03:02:53;100690.77;;;-2.79;100.00
56681;BME280;42558;52.388;13.390;2022-11-20T03:05:21;100687.04;;;-2.83;100.00
56681;BME280;42558;52.388;13.390;2022-11-20T03:07:50;100688.33;;;-2.82;100.00
56681;BME280;42558;52.388;13.390;2022-11-20T03:10:18;100686.05;;;-2.82;100.00
56681;BME280;42558;52.388;13.390;2022-11-20T03:12:46;100682.95;;;-2.85;100.00
56681;BME280;42558;52.388;13.390;2022-11-20T03:15:15;100685.81;;;-2.86;100.00
56681;BME280;42558;52.388;13.390;2022-11-20T03:17:43;100685.03;;;-2.82;100.00
56681;BME280;42558;52.388;13.390;2022-11-20T03:20:12;100680.55;;;-2.82;100.00
56681;BME280;42558;52.388;13.390;2022-11-20T03:22:40;100675.46;;;-2.84;100.00
56681;BME280;42558;52.388;13.390;2022-11-20T03:25:09;100672.96;;;-2.83;100.00
56681;BME280;42558;52.388;13.390;2022-11-20T03:27:37;100668.56;;;-2.84;100.00
56681;BME280;42558;52.388;13.390;2022-11-20T03:30:06;100668.36;;;-2.87;100.00
56681;BME280;42558;52.388;13.390;2022-11-20T03:32:33;100665.92;;;-2.88;100.00
56681;BME280;42558;52.388;13.390;2022-11-20T03:35:02;100668.03;;;-2.84;100.00
56681;BME280;42558;52.388;13.390;2022-11-20T03:37:31;100671.87;;;-2.81;100.00
56681;BME280;42558;52.388;13.390;2022-11-20T03:39:58;100673.54;;;-2.84;100.00
56681;BME280;42558;52.388;13.390;2022-11-20T03:42:27;100673.60;;;-2.86;100.00
56681;BME280;42558;52.388;13.390;2022-11-20T03:45:17;100670.77;;;-2.82;100.00
56681;BME280;42558;52.388;13.390;2022-11-20T03:47:46;100677.84;;;-2.79;100.00
56681;BME280;42558;52.388;13.390;2022-11-20T03:50:15;100674.84;;;-2.80;100.00
56681;BME280;42558;52.388;13.390;2022-11-20T03:52:43;100675.98;;;-2.81;100.00
56681;BME280;42558;52.388;13.390;2022-11-20T03:55:12;100678.13;;;-2.80;100.00
56681;BME280;42558;52.388;13.390;2022-11-20T03:57:40;100675.48;;;-2.79;100.00
56681;BME280;42558;52.388;13.390;2022-11-20T04:00:10;100671.65;;;-2.76;100.00
56681;BME280;42558;52.388;13.390;2022-11-20T04:02:37;100671.27;;;-2.72;100.00
56681;BME280;42558;52.388;13.390;2022-11-20T04:05:06;100672.39;;;-2.68;100.00
56681;BME280;42558;52.388;13.390;2022-11-20T04:07:34;100671.30;;;-2.66;100.00
56681;BME280;42558;52.388;13.390;2022-11-20T04:10:02;100667.13;;;-2.67;100.00
56681;BME280;42558;52.388;13.390;2022-11-20T04:12:34;100664.33;;;-2.67;100.00
56681;BME280;42558;52.388;13.390;2022-11-20T04:15:03;100665.18;;;-2.65;100.00
56681;BME280;42558;52.388;13.390;2022-11-20T04:17:30;100666.77;;;-2.62;100.00
56681;BME280;42558;52.388;13.390;2022-11-20T04:19:59;100666.40;;;-2.59;100.00
56681;BME280;42558;52.388;13.390;2022-11-20T04:22:27;100666.61;;;-2.56;100.00
56681;BME280;42558;52.388;13.390;2022-11-20T04:24:56;100668.55;;;-2.53;100.00
56681;BME280;42558;52.388;13.390;2022-11-20T04:27:24;100669.77;;;-2.53;100.00
56681;BME280;42558;52.388;13.390;2022-11-20T04:29:52;100669.33;;;-2.51;100.00
56681;BME280;42558;52.388;13.390;2022-11-20T04:32:21;100670.11;;;-2.50;100.00
56681;BME280;42558;52.388;13.390;2022-11-20T04:34:49;100667.11;;;-2.48;100.00
56681;BME280;42558;52.388;13.390;2022-11-20T04:37:18;100669.08;;;-2.47;100.00
56681;BME280;42558;52.388;13.390;2022-11-20T04:39:46;100669.63;;;-2.43;100.00
56681;BME280;42558;52.388;13.390;2022-11-20T04:42:15;100664.98;;;-2.43;100.00
56681;BME280;42558;52.388;13.390;2022-11-20T04:45:00;100667.73;;;-2.38;100.00
56681;BME280;42558;52.388;13.390;2022-11-20T04:47:30;100663.59;;;-2.35;100.00
56681;BME280;42558;52.388;13.390;2022-11-20T04:49:59;100659.05;;;-2.34;100.00
56681;BME280;42558;52.388;13.390;2022-11-20T04:52:29;100657.41;;;-2.35;100.00
56681;BME280;42558;52.388;13.390;2022-11-20T04:54:59;100653.05;;;-2.33;100.00
56681;BME280;42558;52.388;13.390;2022-11-20T04:57:29;100652.67;;;-2.31;100.00
56681;BME280;42558;52.388;13.390;2022-11-20T04:59:59;100650.55;;;-2.32;100.00
56681;BME280;42558;52.388;13.390;2022-11-20T05:02:31;100649.08;;;-2.31;100.00
56681;BME280;42558;52.388;13.390;2022-11-20T05:05:01;100643.11;;;-2.30;100.00
56681;BME280;42558;52.388;13.390;2022-11-20T05:07:31;100637.66;;;-2.32;100.00
56681;BME280;42558;52.388;13.390;2022-11-20T05:10:01;100639.17;;;-2.30;100.00
56681;BME280;42558;52.388;13.390;2022-11-20T05:12:31;100637.80;;;-2.27;100.00
56681;BME280;42558;52.388;13.390;2022-11-20T05:15:01;100630.27;;;-2.26;100.00
56681;BME280;42558;52.388;13.390;2022-11-20T05:17:31;100631.97;;;-2.27;100.00
56681;BME280;42558;52.388;13.390;2022-11-20T05:19:59;100624.52;;;-2.27;100.00
56681;BME280;42558;52.388;13.390;2022-11-20T05:22:27;100622.84;;;-2.24;100.00
56681;BME280;42558;52.388;13.390;2022-11-20T05:24:56;100622.70;;;-2.24;100.00
56681;BME280;42558;52.388;13.390;2022-11-20T05:27:24;100622.13;;;-2.24;100.00
56681;BME280;42558;52.388;13.390;2022-11-20T05:29:53;100622.09;;;-2.25;100.00
56681;BME280;42558;52.388;13.390;2022-11-20T05:32:21;100628.88;;;-2.24;100.00
56681;BME280;42558;52.388;13.390;2022-11-20T05:34:53;100626.55;;;-2.25;100.00
56681;BME280;42558;52.388;13.390;2022-11-20T05:37:21;100625.48;;;-2.23;100.00
56681;BME280;42558;52.388;13.390;2022-11-20T05:39:50;100626.77;;;-2.22;100.00
56681;BME280;42558;52.388;13.390;2022-11-20T05:42:18;100627.39;;;-2.17;100.00
56681;BME280;42558;52.388;13.390;2022-11-20T05:45:03;100627.98;;;-2.13;100.00
56681;BME280;42558;52.388;13.390;2022-11-20T05:47:34;100625.58;;;-2.10;100.00
56681;BME280;42558;52.388;13.390;2022-11-20T05:50:05;100619.16;;;-2.11;100.00
56681;BME280;42558;52.388;13.390;2022-11-20T05:52:35;100620.29;;;-2.10;100.00
56681;BME280;42558;52.388;13.390;2022-11-20T05:55:05;100615.85;;;-2.12;100.00
56681;BME280;42558;52.388;13.390;2022-11-20T05:57:35;100615.15;;;-2.09;100.00
56681;BME280;42558;52.388;13.390;2022-11-20T06:00:06;100613.80;;;-2.08;100.00
56681;BME280;42558;52.388;13.390;2022-11-20T06:02:36;100612.27;;;-2.08;100.00
56681;BME280;42558;52.388;13.390;2022-11-20T06:05:07;100613.77;;;-2.06;100.00
56681;BME280;42558;52.388;13.390;2022-11-20T06:07:37;100611.39;;;-2.06;100.00
56681;BME280;42558;52.388;13.390;2022-11-20T06:10:07;100612.42;;;-2.06;100.00
56681;BME280;42558;52.388;13.390;2022-11-20T06:12:37;100613.45;;;-2.03;100.00
56681;BME280;42558;52.388;13.390;2022-11-20T06:15:08;100615.42;;;-2.05;100.00
56681;BME280;42558;52.388;13.390;2022-11-20T06:17:40;100612.75;;;-2.03;100.00
56681;BME280;42558;52.388;13.390;2022-11-20T06:20:10;100612.46;;;-2.02;100.00
56681;BME280;42558;52.388;13.390;2022-11-20T06:22:40;100613.99;;;-2.03;100.00
56681;BME280;42558;52.388;13.390;2022-11-20T06:25:10;100610.70;;;-2.06;100.00
56681;BME280;42558;52.388;13.390;2022-11-20T06:27:40;100608.95;;;-2.06;100.00
56681;BME280;42558;52.388;13.390;2022-11-20T06:30:11;100613.60;;;-2.06;100.00
56681;BME280;42558;52.388;13.390;2022-11-20T06:32:41;100615.15;;;-2.09;100.00
56681;BME280;42558;52.388;13.390;2022-11-20T06:35:11;100616.43;;;-2.11;100.00
56681;BME280;42558;52.388;13.390;2022-11-20T06:37:39;100617.69;;;-2.12;100.00
56681;BME280;42558;52.388;13.390;2022-11-20T06:40:09;100616.58;;;-2.14;100.00
56681;BME280;42558;52.388;13.390;2022-11-20T06:42:36;100614.50;;;-2.17;100.00
56681;BME280;42558;52.388;13.390;2022-11-20T06:45:05;100616.02;;;-2.12;100.00
56681;BME280;42558;52.388;13.390;2022-11-20T06:47:33;100615.34;;;-2.14;100.00
56681;BME280;42558;52.388;13.390;2022-11-20T06:50:02;100608.17;;;-2.16;100.00
56681;BME280;42558;52.388;13.390;2022-11-20T06:52:30;100609.11;;;-2.15;100.00
56681;BME280;42558;52.388;13.390;2022-11-20T06:54:58;100610.09;;;-2.13;100.00
56681;BME280;42558;52.388;13.390;2022-11-20T06:57:27;100610.85;;;-2.17;100.00
56681;BME280;42558;52.388;13.390;2022-11-20T06:59:55;100610.11;;;-2.15;100.00
56681;BME280;42558;52.388;13.390;2022-11-20T07:02:24;100607.45;;;-2.17;100.00
56681;BME280;42558;52.388;13.390;2022-11-20T07:04:52;100614.38;;;-2.22;100.00
56681;BME280;42558;52.388;13.390;2022-11-20T07:07:20;100617.64;;;-2.19;100.00
56681;BME280;42558;52.388;13.390;2022-11-20T07:09:49;100611.55;;;-2.17;100.00
56681;BME280;42558;52.388;13.390;2022-11-20T07:12:18;100613.71;;;-2.18;100.00
56681;BME280;42558;52.388;13.390;2022-11-20T07:14:46;100615.89;;;-2.22;100.00
56681;BME280;42558;52.388;13.390;2022-11-20T07:17:14;100620.35;;;-2.25;100.00
56681;BME280;42558;52.388;13.390;2022-11-20T07:19:43;100617.24;;;-2.25;100.00
56681;BME280;42558;52.388;13.390;2022-11-20T07:22:11;100618.03;;;-2.21;100.00
56681;BME280;42558;52.388;13.390;2022-11-20T07:24:39;100614.66;;;-2.25;100.00
56681;BME280;42558;52.388;13.390;2022-11-20T07:27:14;100610.19;;;-2.25;100.00
56681;BME280;42558;52.388;13.390;2022-11-20T07:29:44;100608.55;;;-2.27;100.00
56681;BME280;42558;52.388;13.390;2022-11-20T07:32:14;100600.29;;;-2.32;100.00
56681;BME280;42558;52.388;13.390;2022-11-20T07:34:43;100599.94;;;-2.35;100.00
56681;BME280;42558;52.388;13.390;2022-11-20T07:37:14;100599.58;;;-2.38;100.00
56681;BME280;42558;52.388;13.390;2022-11-20T07:39:44;100603.06;;;-2.32;100.00
56681;BME280;42558;52.388;13.390;2022-11-20T07:42:14;100602.05;;;-2.31;100.00
56681;BME280;42558;52.388;13.390;2022-11-20T07:44:44;100605.57;;;-2.30;100.00
56681;BME280;42558;52.388;13.390;2022-11-20T07:47:14;100604.31;;;-2.36;100.00
56681;BME280;42558;52.388;13.390;2022-11-20T07:49:42;100603.84;;;-2.27;100.00
56681;BME280;42558;52.388;13.390;2022-11-20T07:52:11;100603.75;;;-2.24;100.00
56681;BME280;42558;52.388;13.390;2022-11-20T07:54:39;100597.46;;;-2.17;100.00
56681;BME280;42558;52.388;13.390;2022-11-20T07:57:07;100595.00;;;-2.14;100.00
56681;BME280;42558;52.388;13.390;2022-11-20T07:59:36;100594.98;;;-2.18;100.00
56681;BME280;42558;52.388;13.390;2022-11-20T08:02:05;100596.69;;;-2.27;100.00
56681;BME280;42558;52.388;13.390;2022-11-20T08:04:33;100592.88;;;-2.24;100.00
56681;BME280;42558;52.388;13.390;2022-11-20T08:07:01;100592.26;;;-2.28;100.00
56681;BME280;42558;52.388;13.390;2022-11-20T08:09:30;100588.90;;;-2.19;100.00
56681;BME280;42558;52.388;13.390;2022-11-20T08:11:58;100588.31;;;-2.20;100.00
56681;BME280;42558;52.388;13.390;2022-11-20T08:14:47;100591.60;;;-2.06;100.00
56681;BME280;42558;52.388;13.390;2022-11-20T08:17:17;100588.35;;;-2.11;100.00
56681;BME280;42558;52.388;13.390;2022-11-20T08:19:46;100586.34;;;-1.99;100.00
56681;BME280;42558;52.388;13.390;2022-11-20T08:22:16;100582.46;;;-2.06;100.00
56681;BME280;42558;52.388;13.390;2022-11-20T08:24:47;100577.71;;;-2.13;100.00
56681;BME280;42558;52.388;13.390;2022-11-20T08:27:15;100584.36;;;-2.03;100.00
56681;BME280;42558;52.388;13.390;2022-11-20T08:29:44;100581.09;;;-2.08;100.00
56681;BME280;42558;52.388;13.390;2022-11-20T08:32:12;100583.73;;;-1.96;100.00
56681;BME280;42558;52.388;13.390;2022-11-20T08:34:41;100582.05;;;-1.99;100.00
56681;BME280;42558;52.388;13.390;2022-11-20T08:37:09;100582.70;;;-1.96;100.00
56681;BME280;42558;52.388;13.390;2022-11-20T08:39:37;100580.56;;;-1.88;100.00
56681;BME280;42558;52.388;13.390;2022-11-20T08:42:08;100580.63;;;-1.93;100.00
56681;BME280;42558;52.388;13.390;2022-11-20T08:44:44;100582.05;;;-2.10;100.00
56681;BME280;42558;52.388;13.390;2022-11-20T08:47:13;100580.08;;;-1.91;100.00
56681;BME280;42558;52.388;13.390;2022-11-20T08:49:43;100579.61;;;-1.87;100.00
56681;BME280;42558;52.388;13.390;2022-11-20T08:52:13;100575.55;;;-1.83;100.00
56681;BME280;42558;52.388;13.390;2022-11-20T08:54:43;100575.55;;;-1.77;100.00
56681;BME280;42558;52.388;13.390;2022-11-20T08:57:12;100577.79;;;-1.86;100.00
56681;BME280;42558;52.388;13.390;2022-11-20T08:59:42;100584.85;;;-2.00;100.00
56681;BME280;42558;52.388;13.390;2022-11-20T09:02:32;100580.65;;;-2.04;100.00
56681;BME280;42558;52.388;13.390;2022-11-20T09:05:02;100577.97;;;-2.03;100.00
56681;BME280;42558;52.388;13.390;2022-11-20T09:07:31;100577.69;;;-2.05;100.00
56681;BME280;42558;52.388;13.390;2022-11-20T09:09:59;100586.40;;;-2.03;100.00
56681;BME280;42558;52.388;13.390;2022-11-20T09:12:49;100588.50;;;-2.08;100.00
56681;BME280;42558;52.388;13.390;2022-11-20T09:15:22;100590.18;;;-2.12;100.00
56681;BME280;42558;52.388;13.390;2022-11-20T09:17:54;100592.52;;;-1.90;100.00
56681;BME280;42558;52.388;13.390;2022-11-20T09:20:25;100598.44;;;-1.86;100.00
56681;BME280;42558;52.388;13.390;2022-11-20T09:22:57;100599.34;;;-1.95;100.00
56681;BME280;42558;52.388;13.390;2022-11-20T09:25:27;100596.80;;;-1.97;100.00
56681;BME280;42558;52.388;13.390;2022-11-20T09:27:58;100593.69;;;-1.88;100.00
56681;BME280;42558;52.388;13.390;2022-11-20T09:30:28;100594.38;;;-1.79;100.00
56681;BME280;42558;52.388;13.390;2022-11-20T09:32:58;100594.05;;;-1.85;100.00
56681;BME280;42558;52.388;13.390;2022-11-20T09:35:27;100589.52;;;-1.80;100.00
56681;BME280;42558;52.388;13.390;2022-11-20T09:37:57;100589.38;;;-1.74;100.00
56681;BME280;42558;52.388;13.390;2022-11-20T09:40:29;100585.38;;;-1.69;100.00
56681;BME280;42558;52.388;13.390;2022-11-20T09:46:57;100582.88;;;-1.79;100.00
56681;BME280;42558;52.388;13.390;2022-11-20T09:53:11;100580.01;;;-1.51;100.00
56681;BME280;42558;52.388;13.390;2022-11-20T09:55:46;100576.30;;;-1.71;100.00
56681;BME280;42558;52.388;13.390;2022-11-20T09:58:29;100577.98;;;-1.69;100.00
56681;BME280;42558;52.388;13.390;2022-11-20T10:04:11;100573.79;;;-1.49;100.00
56681;BME280;42558;52.388;13.390;2022-11-20T10:07:11;100569.16;;;-1.48;100.00
56681;BME280;42558;52.388;13.390;2022-11-20T10:10:01;100566.23;;;-1.48;100.00
56681;BME280;42558;52.388;13.390;2022-11-20T10:19:33;100558.05;;;-1.50;100.00
56681;BME280;42558;52.388;13.390;2022-11-20T10:22:32;100553.77;;;-1.58;100.00
56681;BME280;42558;52.388;13.390;2022-11-20T10:28:06;100555.26;;;-1.45;100.00
56681;BME280;42558;52.388;13.390;2022-11-20T10:30:44;100553.14;;;-1.45;100.00
56681;BME280;42558;52.388;13.390;2022-11-20T10:33:21;100552.75;;;-1.37;100.00
56681;BME280;42558;52.388;13.390;2022-11-20T10:39:05;100553.71;;;-1.14;100.00
56681;BME280;42558;52.388;13.390;2022-11-20T10:41:47;100552.98;;;-1.03;100.00
56681;BME280;42558;52.388;13.390;2022-11-20T10:44:28;100547.45;;;-1.00;100.00
56681;BME280;42558;52.388;13.390;2022-11-20T10:47:26;100544.92;;;-1.02;100.00
56681;BME280;42558;52.388;13.390;2022-11-20T10:50:01;100540.98;;;-1.02;100.00
56681;BME280;42558;52.388;13.390;2022-11-20T10:56:02;100530.70;;;-1.00;100.00
56681;BME280;42558;52.388;13.390;2022-11-20T11:01:55;100528.48;;;-0.91;100.00
56681;BME280;42558;52.388;13.390;2022-11-20T11:07:30;100522.63;;;-0.90;100.00
56681;BME280;42558;52.388;13.390;2022-11-20T11:13:22;100526.23;;;-0.78;100.00
56681;BME280;42558;52.388;13.390;2022-11-20T11:15:53;100523.94;;;-0.76;100.00
56681;BME280;42558;52.388;13.390;2022-11-20T11:18:32;100522.80;;;-0.87;100.00
56681;BME280;42558;52.388;13.390;2022-11-20T11:21:04;100523.59;;;-0.95;100.00
56681;BME280;42558;52.388;13.390;2022-11-20T11:23:42;100516.54;;;-0.79;100.00
56681;BME280;42558;52.388;13.390;2022-11-20T11:26:22;100513.11;;;-0.69;100.00
56681;BME280;42558;52.388;13.390;2022-11-20T11:29:02;100509.17;;;-0.65;100.00
56681;BME280;42558;52.388;13.390;2022-11-20T11:31:35;100510.14;;;-0.82;100.00
56681;BME280;42558;52.388;13.390;2022-11-20T11:34:16;100510.73;;;-0.43;100.00
56681;BME280;42558;52.388;13.390;2022-11-20T11:36:57;100506.45;;;-0.22;100.00
56681;BME280;42558;52.388;13.390;2022-11-20T11:39:28;100504.35;;;-0.23;100.00
56681;BME280;42558;52.388;13.390;2022-11-20T11:42:00;100503.41;;;-0.34;100.00
56681;BME280;42558;52.388;13.390;2022-11-20T11:44:33;100501.35;;;-0.24;100.00
56681;BME280;42558;52.388;13.390;2022-11-20T11:47:47;100498.52;;;-0.18;100.00
56681;BME280;42558;52.388;13.390;2022-11-20T11:50:26;100498.55;;;-0.11;100.00
56681;BME280;42558;52.388;13.390;2022-11-20T11:53:17;100499.98;;;-0.17;100.00
56681;BME280;42558;52.388;13.390;2022-11-20T11:55:56;100492.97;;;0.11;100.00
56681;BME280;42558;52.388;13.390;2022-11-20T11:58:47;100490.85;;;0.17;100.00
56681;BME280;42558;52.388;13.390;2022-11-20T12:15:46;100476.90;;;0.18;99.37
56681;BME280;42558;52.388;13.390;2022-11-20T12:18:22;100477.53;;;0.28;99.78
56681;BME280;42558;52.388;13.390;2022-11-20T12:21:08;100479.09;;;0.31;99.73
56681;BME280;42558;52.388;13.390;2022-11-20T12:45:02;100469.49;;;0.05;100.00
56681;BME280;42558;52.388;13.390;2022-11-20T12:56:57;100459.46;;;-0.22;100.00
56681;BME280;42558;52.388;13.390;2022-11-20T13:00:38;100458.25;;;-0.25;100.00
56681;BME280;42558;52.388;13.390;2022-11-20T13:06:16;100453.63;;;-0.31;100.00
56681;BME280;42558;52.388;13.390;2022-11-20T13:08:53;100455.59;;;-0.23;100.00
56681;BME280;42558;52.388;13.390;2022-11-20T13:11:50;100447.58;;;-0.24;100.00
56681;BME280;42558;52.388;13.390;2022-11-20T13:20:00;100447.19;;;-0.15;100.00
56681;BME280;42558;52.388;13.390;2022-11-20T13:22:51;100447.20;;;-0.12;100.00
56681;BME280;42558;52.388;13.390;2022-11-20T13:28:04;100442.03;;;-0.15;100.00
56681;BME280;42558;52.388;13.390;2022-11-20T13:30:47;100437.14;;;-0.22;100.00
56681;BME280;42558;52.388;13.390;2022-11-20T13:33:36;100431.95;;;-0.23;100.00
56681;BME280;42558;52.388;13.390;2022-11-20T13:36:25;100427.95;;;-0.30;100.00
56681;BME280;42558;52.388;13.390;2022-11-20T13:38:58;100424.88;;;-0.33;100.00
56681;BME280;42558;52.388;13.390;2022-11-20T13:41:33;100424.52;;;-0.33;100.00
56681;BME280;42558;52.388;13.390;2022-11-20T13:44:12;100427.59;;;-0.40;100.00
56681;BME280;42558;52.388;13.390;2022-11-20T13:46:46;100423.54;;;-0.45;100.00
56681;BME280;42558;52.388;13.390;2022-11-20T13:49:23;100422.44;;;-0.53;100.00
56681;BME280;42558;52.388;13.390;2022-11-20T13:55:27;100416.45;;;-0.56;100.00
56681;BME280;42558;52.388;13.390;2022-11-20T14:01:23;100422.52;;;-0.55;100.00
56681;BME280;42558;52.388;13.390;2022-11-20T14:03:56;100427.05;;;-0.58;100.00
56681;BME280;42558;52.388;13.390;2022-11-20T14:06:45;100431.80;;;-0.56;100.00
56681;BME280;42558;52.388;13.390;2022-11-20T14:09:33;100428.79;;;-0.54;100.00
56681;BME280;42558;52.388;13.390;2022-11-20T14:12:18;100429.27;;;-0.55;100.00
56681;BME280;42558;52.388;13.390;2022-11-20T14:14:52;100432.33;;;-0.49;100.00
56681;BME280;42558;52.388;13.390;2022-11-20T14:20:06;100426.44;;;-0.53;100.00
56681;BME280;42558;52.388;13.390;2022-11-20T14:22:36;100424.84;;;-0.54;100.00
56681;BME280;42558;52.388;13.390;2022-11-20T14:27:38;100419.46;;;-0.57;100.00
56681;BME280;42558;52.388;13.390;2022-11-20T14:30:25;100417.48;;;-0.59;100.00
56681;BME280;42558;52.388;13.390;2022-11-20T14:33:00;100415.47;;;-0.61;100.00
56681;BME280;42558;52.388;13.390;2022-11-20T14:35:37;100414.78;;;-0.61;100.00
56681;BME280;42558;52.388;13.390;2022-11-20T14:38:14;100411.69;;;-0.61;100.00
56681;BME280;42558;52.388;13.390;2022-11-20T14:40:45;100411.59;;;-0.62;100.00
56681;BME280;42558;52.388;13.390;2022-11-20T14:43:28;100413.67;;;-0.66;100.00
56681;BME280;42558;52.388;13.390;2022-11-20T14:46:08;100420.55;;;-0.66;100.00